sensor_id;sensor_type;location;lat;lon;timestamp;pressure;altitude;pressure_sealevel;temperature;humidity
35331;BME280;21441;52.190;20.910;2023-05-08T00:00:41;101479.63;;;5.28;100.00
35331;BME280;21441;52.190;20.910;2023-05-08T00:03:17;101479.94;;;5.23;100.00
35331;BME280;21441;52.190;20.910;2023-05-08T00:05:44;101479.72;;;5.26;100.00
35331;BME280;21441;52.190;20.910;2023-05-08T00:08:13;101475.41;;;5.25;100.00
35331;BME280;21441;52.190;20.910;2023-05-08T00:10:40;101478.78;;;5.27;100.00
35331;BME280;21441;52.190;20.910;2023-05-08T00:13:07;101482.06;;;5.31;100.00
35331;BME280;21441;52.190;20.910;2023-05-08T00:15:35;101483.03;;;5.30;100.00
35331;BME280;21441;52.190;20.910;2023-05-08T00:18:02;101481.53;;;5.26;100.00
35331;BME280;21441;52.190;20.910;2023-05-08T00:20:30;101488.50;;;5.27;100.00
35331;BME280;21441;52.190;20.910;2023-05-08T00:22:59;101483.84;;;5.30;100.00
35331;BME280;21441;52.190;20.910;2023-05-08T00:25:27;101489.38;;;5.27;100.00
35331;BME280;21441;52.190;20.910;2023-05-08T00:27:56;101483.84;;;5.30;100.00
35331;BME280;21441;52.190;20.910;2023-05-08T00:30:23;101489.25;;;5.29;100.00
35331;BME280;21441;52.190;20.910;2023-05-08T00:32:50;101483.94;;;5.29;100.00
35331;BME280;21441;52.190;20.910;2023-05-08T00:35:17;101495.41;;;5.16;100.00
35331;BME280;21441;52.190;20.910;2023-05-08T00:37:45;101494.25;;;5.21;100.00
35331;BME280;21441;52.190;20.910;2023-05-08T00:40:12;101496.66;;;5.24;100.00
35331;BME280;21441;52.190;20.910;2023-05-08T00:42:40;101499.22;;;5.25;100.00
35331;BME280;21441;52.190;20.910;2023-05-08T00:45:08;101498.47;;;5.23;100.00
35331;BME280;21441;52.190;20.910;2023-05-08T00:47:36;101501.13;;;5.23;100.00
35331;BME280;21441;52.190;20.910;2023-05-08T00:50:04;101506.41;;;5.23;100.00
35331;BME280;21441;52.190;20.910;2023-05-08T00:52:32;101501.97;;;5.24;100.00
35331;BME280;21441;52.190;20.910;2023-05-08T00:54:59;101503.66;;;5.25;100.00
35331;BME280;21441;52.190;20.910;2023-05-08T00:57:28;101510.97;;;5.21;100.00
35331;BME280;21441;52.190;20.910;2023-05-08T00:59:59;101505.25;;;5.14;100.00
35331;BME280;21441;52.190;20.910;2023-05-08T01:02:28;101507.56;;;5.19;100.00
35331;BME280;21441;52.190;20.910;2023-05-08T01:04:56;101522.78;;;5.15;100.00
35331;BME280;21441;52.190;20.910;2023-05-08T01:07:24;101518.56;;;5.13;100.00
35331;BME280;21441;52.190;20.910;2023-05-08T01:09:51;101532.94;;;5.09;100.00
35331;BME280;21441;52.190;20.910;2023-05-08T01:12:23;101532.63;;;5.13;100.00
35331;BME280;21441;52.190;20.910;2023-05-08T01:15:05;101513.38;;;4.99;100.00
35331;BME280;21441;52.190;20.910;2023-05-08T01:17:44;101528.22;;;5.14;100.00
35331;BME280;21441;52.190;20.910;2023-05-08T01:20:25;101530.22;;;5.10;100.00
35331;BME280;21441;52.190;20.910;2023-05-08T01:23:12;101541.84;;;5.08;100.00
35331;BME280;21441;52.190;20.910;2023-05-08T01:26:25;101532.94;;;5.09;100.00
35331;BME280;21441;52.190;20.910;2023-05-08T01:29:21;101529.69;;;5.05;100.00
35331;BME280;21441;52.190;20.910;2023-05-08T01:32:11;101538.56;;;5.04;100.00
35331;BME280;21441;52.190;20.910;2023-05-08T01:34:43;101538.47;;;5.06;100.00
35331;BME280;21441;52.190;20.910;2023-05-08T01:37:16;101538.78;;;5.01;100.00
35331;BME280;21441;52.190;20.910;2023-05-08T01:39:50;101534.31;;;5.02;100.00
35331;BME280;21441;52.190;20.910;2023-05-08T01:42:23;101539.38;;;5.05;100.00
35331;BME280;21441;52.190;20.910;2023-05-08T01:44:55;101543.22;;;5.01;100.00
35331;BME280;21441;52.190;20.910;2023-05-08T01:47:27;101537.94;;;5.01;100.00
35331;BME280;21441;52.190;20.910;2023-05-08T01:50:01;101549.41;;;4.87;100.00
35331;BME280;21441;52.190;20.910;2023-05-08T01:52:33;101540.41;;;4.77;100.00
35331;BME280;21441;52.190;20.910;2023-05-08T01:55:04;101550.16;;;4.89;100.00
35331;BME280;21441;52.190;20.910;2023-05-08T01:57:32;101542.22;;;4.89;100.00
35331;BME280;21441;52.190;20.910;2023-05-08T02:00:02;101541.38;;;4.88;100.00
35331;BME280;21441;52.190;20.910;2023-05-08T02:02:33;101548.03;;;4.94;100.00
35331;BME280;21441;52.190;20.910;2023-05-08T02:05:01;101545.63;;;4.91;100.00
35331;BME280;21441;52.190;20.910;2023-05-08T02:07:31;101544.13;;;4.87;100.00
35331;BME280;21441;52.190;20.910;2023-05-08T02:10:01;101556.41;;;4.88;100.00
35331;BME280;21441;52.190;20.910;2023-05-08T02:12:30;101550.38;;;4.86;100.00
35331;BME280;21441;52.190;20.910;2023-05-08T02:14:59;101556.47;;;4.73;100.00
35331;BME280;21441;52.190;20.910;2023-05-08T02:17:27;101557.31;;;4.74;100.00
35331;BME280;21441;52.190;20.910;2023-05-08T02:19:57;101552.31;;;4.69;100.00
35331;BME280;21441;52.190;20.910;2023-05-08T02:22:25;101556.56;;;4.72;100.00
35331;BME280;21441;52.190;20.910;2023-05-08T02:24:54;101560.25;;;4.69;100.00
35331;BME280;21441;52.190;20.910;2023-05-08T02:27:24;101554.72;;;4.60;100.00
35331;BME280;21441;52.190;20.910;2023-05-08T02:29:53;101555.19;;;4.66;100.00
35331;BME280;21441;52.190;20.910;2023-05-08T02:32:22;101561.97;;;4.70;100.00
35331;BME280;21441;52.190;20.910;2023-05-08T02:34:51;101561.75;;;4.73;100.00
35331;BME280;21441;52.190;20.910;2023-05-08T02:37:21;101554.66;;;4.74;100.00
35331;BME280;21441;52.190;20.910;2023-05-08T02:39:50;101554.66;;;4.74;100.00
35331;BME280;21441;52.190;20.910;2023-05-08T02:42:19;101557.53;;;4.71;100.00
35331;BME280;21441;52.190;20.910;2023-05-08T02:44:47;101556.03;;;4.67;100.00
35331;BME280;21441;52.190;20.910;2023-05-08T02:47:19;101555.84;;;4.70;100.00
35331;BME280;21441;52.190;20.910;2023-05-08T02:49:51;101562.59;;;4.74;100.00
35331;BME280;21441;52.190;20.910;2023-05-08T02:52:27;101554.22;;;4.67;100.00
35331;BME280;21441;52.190;20.910;2023-05-08T02:54:58;101559.41;;;4.69;100.00
35331;BME280;21441;52.190;20.910;2023-05-08T02:57:32;101564.78;;;4.67;100.00
35331;BME280;21441;52.190;20.910;2023-05-08T03:00:04;101562.59;;;4.74;100.00
35331;BME280;21441;52.190;20.910;2023-05-08T03:02:38;101556.28;;;4.77;100.00
35331;BME280;21441;52.190;20.910;2023-05-08T03:05:13;101561.22;;;4.68;100.00
35331;BME280;21441;52.190;20.910;2023-05-08T03:07:44;101563.56;;;4.73;100.00
35331;BME280;21441;52.190;20.910;2023-05-08T03:10:14;101567.38;;;4.82;100.00
35331;BME280;21441;52.190;20.910;2023-05-08T03:12:44;101571.47;;;4.73;100.00
35331;BME280;21441;52.190;20.910;2023-05-08T03:15:23;101572.59;;;4.83;100.00
35331;BME280;21441;52.190;20.910;2023-05-08T03:17:53;101568.31;;;4.81;100.00
35331;BME280;21441;52.190;20.910;2023-05-08T03:20:21;101569.81;;;4.85;100.00
35331;BME280;21441;52.190;20.910;2023-05-08T03:22:52;101574.34;;;4.83;100.00
35331;BME280;21441;52.190;20.910;2023-05-08T03:25:22;101565.63;;;4.95;100.00
35331;BME280;21441;52.190;20.910;2023-05-08T03:27:50;101578.56;;;5.12;100.00
35331;BME280;21441;52.190;20.910;2023-05-08T03:30:19;101583.13;;;5.10;100.00
35331;BME280;21441;52.190;20.910;2023-05-08T03:32:46;101587.44;;;5.11;100.00
35331;BME280;21441;52.190;20.910;2023-05-08T03:35:15;101582.28;;;5.10;100.00
35331;BME280;21441;52.190;20.910;2023-05-08T03:37:43;101587.78;;;5.20;100.00
35331;BME280;21441;52.190;20.910;2023-05-08T03:40:12;101586.84;;;5.33;100.00
35331;BME280;21441;52.190;20.910;2023-05-08T03:42:40;101583.91;;;5.38;100.00
35331;BME280;21441;52.190;20.910;2023-05-08T03:45:10;101582.28;;;5.35;100.00
35331;BME280;21441;52.190;20.910;2023-05-08T03:47:37;101584.63;;;5.53;100.00
35331;BME280;21441;52.190;20.910;2023-05-08T03:50:07;101582.72;;;5.42;100.00
35331;BME280;21441;52.190;20.910;2023-05-08T03:52:34;101584.09;;;5.48;100.00
35331;BME280;21441;52.190;20.910;2023-05-08T03:55:02;101582.81;;;5.66;100.00
35331;BME280;21441;52.190;20.910;2023-05-08T03:57:36;101584.53;;;5.80;100.00
35331;BME280;21441;52.190;20.910;2023-05-08T04:00:09;101586.31;;;5.79;100.00
35331;BME280;21441;52.190;20.910;2023-05-08T04:02:46;101581.34;;;6.01;100.00
35331;BME280;21441;52.190;20.910;2023-05-08T04:05:20;101581.44;;;6.12;100.00
35331;BME280;21441;52.190;20.910;2023-05-08T04:07:51;101587.13;;;6.18;100.00
35331;BME280;21441;52.190;20.910;2023-05-08T04:10:23;101592.41;;;6.31;100.00
35331;BME280;21441;52.190;20.910;2023-05-08T04:13:02;101591.34;;;6.34;100.00
35331;BME280;21441;52.190;20.910;2023-05-08T04:15:33;101596.72;;;6.45;100.00
35331;BME280;21441;52.190;20.910;2023-05-08T04:18:05;101601.28;;;6.67;100.00
35331;BME280;21441;52.190;20.910;2023-05-08T04:20:34;101602.66;;;6.73;100.00
35331;BME280;21441;52.190;20.910;2023-05-08T04:23:05;101613.56;;;6.81;100.00
35331;BME280;21441;52.190;20.910;2023-05-08T04:25:35;101611.91;;;6.91;100.00
35331;BME280;21441;52.190;20.910;2023-05-08T04:28:05;101618.66;;;6.95;100.00
35331;BME280;21441;52.190;20.910;2023-05-08T04:30:32;101614.38;;;7.06;100.00
35331;BME280;21441;52.190;20.910;2023-05-08T04:33:01;101621.19;;;7.21;100.00
35331;BME280;21441;52.190;20.910;2023-05-08T04:35:30;101622.31;;;7.30;100.00
35331;BME280;21441;52.190;20.910;2023-05-08T04:37:58;101622.09;;;7.44;100.00
35331;BME280;21441;52.190;20.910;2023-05-08T04:40:25;101620.81;;;7.61;100.00
35331;BME280;21441;52.190;20.910;2023-05-08T04:42:52;101623.63;;;7.71;100.00
35331;BME280;21441;52.190;20.910;2023-05-08T04:45:22;101629.41;;;7.87;100.00
35331;BME280;21441;52.190;20.910;2023-05-08T04:47:49;101630.25;;;7.99;100.00
35331;BME280;21441;52.190;20.910;2023-05-08T04:50:16;101633.78;;;8.22;100.00
35331;BME280;21441;52.190;20.910;2023-05-08T04:52:43;101637.25;;;8.22;97.52
35331;BME280;21441;52.190;20.910;2023-05-08T04:55:11;101637.25;;;8.34;92.55
35331;BME280;21441;52.190;20.910;2023-05-08T04:57:38;101640.75;;;8.34;90.15
35331;BME280;21441;52.190;20.910;2023-05-08T05:00:06;101633.16;;;8.52;86.99
35331;BME280;21441;52.190;20.910;2023-05-08T05:02:34;101640.03;;;8.66;86.26
35331;BME280;21441;52.190;20.910;2023-05-08T05:05:02;101644.09;;;8.81;82.02
35331;BME280;21441;52.190;20.910;2023-05-08T05:07:29;101645.75;;;8.94;81.60
35331;BME280;21441;52.190;20.910;2023-05-08T05:09:56;101648.88;;;8.99;78.52
35331;BME280;21441;52.190;20.910;2023-05-08T05:12:24;101654.44;;;9.07;76.93
35331;BME280;21441;52.190;20.910;2023-05-08T05:14:51;101653.16;;;9.22;76.81
35331;BME280;21441;52.190;20.910;2023-05-08T05:17:18;101654.22;;;9.20;75.93
35331;BME280;21441;52.190;20.910;2023-05-08T05:19:48;101654.22;;;9.20;75.22
35331;BME280;21441;52.190;20.910;2023-05-08T05:22:15;101653.81;;;9.36;72.73
35331;BME280;21441;52.190;20.910;2023-05-08T05:24:42;101656.47;;;9.57;70.51
35331;BME280;21441;52.190;20.910;2023-05-08T05:27:09;101662.72;;;9.67;70.42
35331;BME280;21441;52.190;20.910;2023-05-08T05:29:36;101665.75;;;9.83;70.12
35331;BME280;21441;52.190;20.910;2023-05-08T05:32:04;101658.94;;;9.90;68.86
35331;BME280;21441;52.190;20.910;2023-05-08T05:34:32;101659.88;;;10.10;67.35
35331;BME280;21441;52.190;20.910;2023-05-08T05:37:00;101647.78;;;10.06;64.67
35331;BME280;21441;52.190;20.910;2023-05-08T05:39:27;101647.09;;;10.14;60.81
35331;BME280;21441;52.190;20.910;2023-05-08T05:41:54;101658.06;;;10.21;61.65
35331;BME280;21441;52.190;20.910;2023-05-08T05:44:22;101663.91;;;10.36;61.12
35331;BME280;21441;52.190;20.910;2023-05-08T05:46:49;101657.41;;;10.28;60.99
35331;BME280;21441;52.190;20.910;2023-05-08T05:49:16;101660.91;;;10.60;59.31
35331;BME280;21441;52.190;20.910;2023-05-08T05:51:43;101660.69;;;10.32;60.24
35331;BME280;21441;52.190;20.910;2023-05-08T05:54:11;101668.38;;;10.56;58.59
35331;BME280;21441;52.190;20.910;2023-05-08T05:56:39;101673.69;;;10.56;57.13
35331;BME280;21441;52.190;20.910;2023-05-08T05:59:06;101668.19;;;10.48;58.86
35331;BME280;21441;52.190;20.910;2023-05-08T06:01:33;101660.28;;;10.37;58.96
35331;BME280;21441;52.190;20.910;2023-05-08T06:04:00;101660.91;;;10.60;57.07
35331;BME280;21441;52.190;20.910;2023-05-08T06:06:27;101667.66;;;10.64;57.20
35331;BME280;21441;52.190;20.910;2023-05-08T06:08:55;101668.19;;;10.58;56.30
35331;BME280;21441;52.190;20.910;2023-05-08T06:11:23;101668.50;;;10.64;56.16
35331;BME280;21441;52.190;20.910;2023-05-08T06:13:50;101665.88;;;10.84;56.04
35331;BME280;21441;52.190;20.910;2023-05-08T06:16:17;101675.31;;;10.88;54.45
35331;BME280;21441;52.190;20.910;2023-05-08T06:18:45;101671.66;;;11.08;54.97
35331;BME280;21441;52.190;20.910;2023-05-08T06:21:12;101675.75;;;11.03;54.61
35331;BME280;21441;52.190;20.910;2023-05-08T06:23:39;101672.34;;;10.91;55.12
35331;BME280;21441;52.190;20.910;2023-05-08T06:26:07;101666.91;;;11.12;53.27
35331;BME280;21441;52.190;20.910;2023-05-08T06:28:36;101666.91;;;11.31;53.32
35331;BME280;21441;52.190;20.910;2023-05-08T06:31:03;101668.13;;;11.56;51.48
35331;BME280;21441;52.190;20.910;2023-05-08T06:33:30;101660.84;;;11.49;52.27
35331;BME280;21441;52.190;20.910;2023-05-08T06:35:58;101673.03;;;11.71;51.92
35331;BME280;21441;52.190;20.910;2023-05-08T06:38:25;101674.75;;;11.52;51.22
35331;BME280;21441;52.190;20.910;2023-05-08T06:40:52;101658.44;;;11.46;51.70
35331;BME280;21441;52.190;20.910;2023-05-08T06:43:20;101655.19;;;11.52;50.35
35331;BME280;21441;52.190;20.910;2023-05-08T06:45:48;101660.84;;;11.49;50.70
35331;BME280;21441;52.190;20.910;2023-05-08T06:48:17;101664.75;;;11.54;51.31
35331;BME280;21441;52.190;20.910;2023-05-08T06:50:45;101669.66;;;11.59;50.83
35331;BME280;21441;52.190;20.910;2023-05-08T06:53:13;101667.44;;;11.45;50.75
35331;BME280;21441;52.190;20.910;2023-05-08T06:55:42;101662.09;;;11.45;50.75
35331;BME280;21441;52.190;20.910;2023-05-08T06:58:09;101657.47;;;11.47;51.02
35331;BME280;21441;52.190;20.910;2023-05-08T07:00:36;101659.38;;;11.74;50.96
35331;BME280;21441;52.190;20.910;2023-05-08T07:03:05;101658.72;;;11.62;50.15
35331;BME280;21441;52.190;20.910;2023-05-08T07:05:32;101660.06;;;11.86;48.87
35331;BME280;21441;52.190;20.910;2023-05-08T07:08:00;101663.97;;;12.11;48.28
35331;BME280;21441;52.190;20.910;2023-05-08T07:10:27;101660.38;;;11.92;49.29
35331;BME280;21441;52.190;20.910;2023-05-08T07:12:54;101663.31;;;11.89;49.04
35331;BME280;21441;52.190;20.910;2023-05-08T07:15:21;101668.22;;;11.84;48.92
35331;BME280;21441;52.190;20.910;2023-05-08T07:17:48;101660.38;;;11.73;50.78
35331;BME280;21441;52.190;20.910;2023-05-08T07:20:17;101664.72;;;11.74;51.60
35331;BME280;21441;52.190;20.910;2023-05-08T07:22:44;101666.03;;;11.50;50.09
35331;BME280;21441;52.190;20.910;2023-05-08T07:25:12;101671.94;;;11.54;48.95
35331;BME280;21441;52.190;20.910;2023-05-08T07:27:39;101672.31;;;11.78;50.05
35331;BME280;21441;52.190;20.910;2023-05-08T07:30:07;101672.91;;;11.63;51.29
35331;BME280;21441;52.190;20.910;2023-05-08T07:32:34;101666.88;;;11.51;51.74
35331;BME280;21441;52.190;20.910;2023-05-08T07:35:04;101667.84;;;11.50;51.29
35331;BME280;21441;52.190;20.910;2023-05-08T07:37:34;101674.44;;;11.65;51.10
35331;BME280;21441;52.190;20.910;2023-05-08T07:40:01;101678.13;;;11.64;51.83
35331;BME280;21441;52.190;20.910;2023-05-08T07:42:28;101678.25;;;11.63;50.69
35331;BME280;21441;52.190;20.910;2023-05-08T07:44:55;101676.00;;;11.77;51.35
35331;BME280;21441;52.190;20.910;2023-05-08T07:47:23;101674.28;;;11.96;50.48
35331;BME280;21441;52.190;20.910;2023-05-08T07:49:50;101646.13;;;11.92;50.35
35331;BME280;21441;52.190;20.910;2023-05-08T07:52:17;101671.66;;;12.24;50.33
35331;BME280;21441;52.190;20.910;2023-05-08T07:54:46;101670.44;;;12.36;49.28
35331;BME280;21441;52.190;20.910;2023-05-08T07:57:13;101669.22;;;12.58;49.19
35331;BME280;21441;52.190;20.910;2023-05-08T07:59:40;101665.94;;;12.64;49.30
35331;BME280;21441;52.190;20.910;2023-05-08T08:02:07;101666.16;;;12.80;47.99
35331;BME280;21441;52.190;20.910;2023-05-08T08:04:34;101661.25;;;12.94;47.32
35331;BME280;21441;52.190;20.910;2023-05-08T08:07:01;101665.47;;;13.14;47.41
35331;BME280;21441;52.190;20.910;2023-05-08T08:09:28;101662.19;;;13.20;46.72
35331;BME280;21441;52.190;20.910;2023-05-08T08:11:58;101660.28;;;13.49;45.58
35331;BME280;21441;52.190;20.910;2023-05-08T08:14:26;101664.41;;;13.43;47.25
35331;BME280;21441;52.190;20.910;2023-05-08T08:16:53;101662.41;;;13.45;46.08
35331;BME280;21441;52.190;20.910;2023-05-08T08:19:21;101665.94;;;13.46;46.39
35331;BME280;21441;52.190;20.910;2023-05-08T08:21:51;101654.06;;;13.48;46.35
35331;BME280;21441;52.190;20.910;2023-05-08T08:24:19;101655.03;;;13.65;46.66
35331;BME280;21441;52.190;20.910;2023-05-08T08:26:46;101653.84;;;13.68;44.95
35331;BME280;21441;52.190;20.910;2023-05-08T08:29:15;101648.47;;;13.59;45.08
35331;BME280;21441;52.190;20.910;2023-05-08T08:31:43;101654.53;;;13.44;44.86
35331;BME280;21441;52.190;20.910;2023-05-08T08:34:11;101645.44;;;13.62;43.80
35331;BME280;21441;52.190;20.910;2023-05-08T08:36:38;101647.66;;;13.67;44.11
35331;BME280;21441;52.190;20.910;2023-05-08T08:39:06;101626.00;;;13.60;43.97
35331;BME280;21441;52.190;20.910;2023-05-08T08:41:37;101637.72;;;13.59;44.25
35331;BME280;21441;52.190;20.910;2023-05-08T08:44:04;101635.13;;;13.50;44.44
35331;BME280;21441;52.190;20.910;2023-05-08T08:46:34;101641.34;;;13.76;44.80
35331;BME280;21441;52.190;20.910;2023-05-08T08:49:07;101636.78;;;13.69;43.82
35331;BME280;21441;52.190;20.910;2023-05-08T08:51:42;101628.63;;;13.78;43.98
35331;BME280;21441;52.190;20.910;2023-05-08T08:54:13;101645.50;;;13.97;44.16
35331;BME280;21441;52.190;20.910;2023-05-08T08:56:40;101632.94;;;14.32;41.92
35331;BME280;21441;52.190;20.910;2023-05-08T08:59:11;101625.19;;;14.29;42.02
35331;BME280;21441;52.190;20.910;2023-05-08T09:01:43;101622.38;;;14.38;42.53
35331;BME280;21441;52.190;20.910;2023-05-08T09:04:10;101618.44;;;14.59;41.08
35331;BME280;21441;52.190;20.910;2023-05-08T09:06:38;101615.56;;;14.10;41.11
35331;BME280;21441;52.190;20.910;2023-05-08T09:09:06;101622.38;;;14.38;41.18
35331;BME280;21441;52.190;20.910;2023-05-08T09:11:34;101622.88;;;14.42;40.69
35331;BME280;21441;52.190;20.910;2023-05-08T09:14:02;101614.78;;;14.76;39.90
35331;BME280;21441;52.190;20.910;2023-05-08T09:16:29;101617.16;;;14.88;39.56
35331;BME280;21441;52.190;20.910;2023-05-08T09:18:58;101613.75;;;14.61;38.60
35331;BME280;21441;52.190;20.910;2023-05-08T09:21:26;101597.19;;;14.98;39.34
35331;BME280;21441;52.190;20.910;2023-05-08T09:23:54;101605.91;;;15.25;38.31
35331;BME280;21441;52.190;20.910;2023-05-08T09:26:32;101607.78;;;15.33;37.33
35331;BME280;21441;52.190;20.910;2023-05-08T09:29:10;101611.47;;;15.48;37.17
35331;BME280;21441;52.190;20.910;2023-05-08T09:31:38;101604.06;;;15.34;36.69
35331;BME280;21441;52.190;20.910;2023-05-08T09:34:07;101603.72;;;15.53;37.61
35331;BME280;21441;52.190;20.910;2023-05-08T09:36:36;101599.00;;;15.55;36.06
35331;BME280;21441;52.190;20.910;2023-05-08T09:39:09;101587.09;;;15.41;35.36
35331;BME280;21441;52.190;20.910;2023-05-08T09:41:37;101601.41;;;15.17;36.20
35331;BME280;21441;52.190;20.910;2023-05-08T09:44:05;101593.50;;;15.24;36.67
35331;BME280;21441;52.190;20.910;2023-05-08T09:46:33;101590.13;;;15.30;37.92
35331;BME280;21441;52.190;20.910;2023-05-08T09:49:01;101597.16;;;15.56;37.72
35331;BME280;21441;52.190;20.910;2023-05-08T09:51:31;101595.13;;;15.50;37.09
35331;BME280;21441;52.190;20.910;2023-05-08T09:53:59;101588.41;;;15.70;37.14
35331;BME280;21441;52.190;20.910;2023-05-08T09:56:30;101590.56;;;15.66;36.66
35331;BME280;21441;52.190;20.910;2023-05-08T09:58:57;101593.66;;;16.11;35.99
35331;BME280;21441;52.190;20.910;2023-05-08T10:01:29;101582.72;;;16.13;36.00
35331;BME280;21441;52.190;20.910;2023-05-08T10:03:57;101585.50;;;15.96;36.96
35331;BME280;21441;52.190;20.910;2023-05-08T10:06:25;101586.53;;;15.71;36.23
35331;BME280;21441;52.190;20.910;2023-05-08T10:09:07;101575.44;;;15.74;36.80
35331;BME280;21441;52.190;20.910;2023-05-08T10:11:35;101577.78;;;15.68;36.65
35331;BME280;21441;52.190;20.910;2023-05-08T10:14:02;101573.91;;;16.27;34.58
35331;BME280;21441;52.190;20.910;2023-05-08T10:16:30;101563.69;;;16.45;34.94
35331;BME280;21441;52.190;20.910;2023-05-08T10:19:06;101565.59;;;16.60;33.54
35331;BME280;21441;52.190;20.910;2023-05-08T10:21:40;101562.09;;;17.05;34.09
35331;BME280;21441;52.190;20.910;2023-05-08T10:24:14;101548.66;;;17.20;35.00
35331;BME280;21441;52.190;20.910;2023-05-08T10:26:43;101556.06;;;17.41;33.68
35331;BME280;21441;52.190;20.910;2023-05-08T10:29:17;101544.00;;;17.14;33.29
35331;BME280;21441;52.190;20.910;2023-05-08T10:31:49;101517.28;;;16.66;33.53
35331;BME280;21441;52.190;20.910;2023-05-08T10:34:18;101554.50;;;16.86;33.08
35331;BME280;21441;52.190;20.910;2023-05-08T10:36:46;101547.19;;;17.18;32.49
35331;BME280;21441;52.190;20.910;2023-05-08T10:39:15;101554.75;;;17.52;32.51
35331;BME280;21441;52.190;20.910;2023-05-08T10:41:43;101545.00;;;17.66;32.01
35331;BME280;21441;52.190;20.910;2023-05-08T10:44:10;101540.31;;;17.30;32.44
35331;BME280;21441;52.190;20.910;2023-05-08T10:46:45;101549.59;;;17.27;32.02
35331;BME280;21441;52.190;20.910;2023-05-08T10:49:19;101545.16;;;17.35;33.03
35331;BME280;21441;52.190;20.910;2023-05-08T10:51:57;101537.09;;;17.79;32.61
35331;BME280;21441;52.190;20.910;2023-05-08T10:54:37;101539.22;;;18.35;32.07
35331;BME280;21441;52.190;20.910;2023-05-08T10:57:09;101540.50;;;18.75;32.83
35331;BME280;21441;52.190;20.910;2023-05-08T10:59:37;101539.78;;;18.45;31.31
35331;BME280;21441;52.190;20.910;2023-05-08T11:02:05;101538.94;;;18.45;32.09
35331;BME280;21441;52.190;20.910;2023-05-08T11:04:33;101536.47;;;18.86;30.97
35331;BME280;21441;52.190;20.910;2023-05-08T11:07:00;101530.97;;;19.01;29.92
35331;BME280;21441;52.190;20.910;2023-05-08T11:09:45;101531.72;;;18.52;30.41
35331;BME280;21441;52.190;20.910;2023-05-08T11:12:22;101535.84;;;18.69;29.92
35331;BME280;21441;52.190;20.910;2023-05-08T11:14:56;101521.53;;;18.90;30.68
35331;BME280;21441;52.190;20.910;2023-05-08T11:17:25;101524.97;;;17.75;30.10
35331;BME280;21441;52.190;20.910;2023-05-08T11:19:56;101530.69;;;17.65;30.72
35331;BME280;21441;52.190;20.910;2023-05-08T11:22:26;101522.59;;;17.65;30.89
35331;BME280;21441;52.190;20.910;2023-05-08T11:24:58;101512.53;;;17.44;31.66
35331;BME280;21441;52.190;20.910;2023-05-08T11:27:34;101524.50;;;17.71;31.83
35331;BME280;21441;52.190;20.910;2023-05-08T11:30:24;101519.59;;;17.75;30.97
35331;BME280;21441;52.190;20.910;2023-05-08T11:35:41;101503.25;;;18.71;30.10
35331;BME280;21441;52.190;20.910;2023-05-08T11:38:19;101507.44;;;18.95;30.82
35331;BME280;21441;52.190;20.910;2023-05-08T11:40:53;101500.84;;;19.04;29.11
35331;BME280;21441;52.190;20.910;2023-05-08T11:43:28;101495.81;;;19.29;29.02
35331;BME280;21441;52.190;20.910;2023-05-08T11:45:59;101498.88;;;19.20;29.22
35331;BME280;21441;52.190;20.910;2023-05-08T11:48:27;101508.25;;;19.24;29.49
35331;BME280;21441;52.190;20.910;2023-05-08T11:50:54;101504.38;;;19.33;29.63
35331;BME280;21441;52.190;20.910;2023-05-08T11:53:21;101500.94;;;19.17;28.96
35331;BME280;21441;52.190;20.910;2023-05-08T11:55:51;101498.78;;;19.76;28.27
35331;BME280;21441;52.190;20.910;2023-05-08T11:58:19;101503.16;;;19.70;28.37
35331;BME280;21441;52.190;20.910;2023-05-08T12:00:47;101502.53;;;19.75;28.93
35331;BME280;21441;52.190;20.910;2023-05-08T12:03:15;101496.38;;;19.94;28.34
35331;BME280;21441;52.190;20.910;2023-05-08T12:05:43;101508.72;;;19.34;28.43
35331;BME280;21441;52.190;20.910;2023-05-08T12:08:12;101507.03;;;18.98;28.93
35331;BME280;21441;52.190;20.910;2023-05-08T12:10:40;101486.97;;;18.43;28.89
35331;BME280;21441;52.190;20.910;2023-05-08T12:13:19;101483.16;;;18.59;30.25
35331;BME280;21441;52.190;20.910;2023-05-08T12:15:47;101491.44;;;19.00;28.91
35331;BME280;21441;52.190;20.910;2023-05-08T12:18:16;101483.16;;;19.71;29.51
35331;BME280;21441;52.190;20.910;2023-05-08T12:20:43;101480.09;;;19.88;28.69
35331;BME280;21441;52.190;20.910;2023-05-08T12:23:10;101492.72;;;19.04;29.27
35331;BME280;21441;52.190;20.910;2023-05-08T12:25:39;101484.31;;;18.71;29.30
35331;BME280;21441;52.190;20.910;2023-05-08T12:28:07;101484.56;;;18.76;28.70
35331;BME280;21441;52.190;20.910;2023-05-08T12:30:36;101479.69;;;18.86;29.51
35331;BME280;21441;52.190;20.910;2023-05-08T12:33:04;101480.88;;;19.40;28.94
35331;BME280;21441;52.190;20.910;2023-05-08T12:35:32;101476.81;;;19.99;29.45
35331;BME280;21441;52.190;20.910;2023-05-08T12:38:00;101468.97;;;20.37;28.05
35331;BME280;21441;52.190;20.910;2023-05-08T12:40:29;101477.69;;;20.13;27.82
35331;BME280;21441;52.190;20.910;2023-05-08T12:42:59;101470.34;;;20.00;29.23
35331;BME280;21441;52.190;20.910;2023-05-08T12:45:28;101471.63;;;20.11;29.21
35331;BME280;21441;52.190;20.910;2023-05-08T12:48:00;101468.50;;;19.24;28.58
35331;BME280;21441;52.190;20.910;2023-05-08T12:50:32;101466.22;;;18.93;29.70
35331;BME280;21441;52.190;20.910;2023-05-08T12:53:03;101472.13;;;19.38;29.28
35331;BME280;21441;52.190;20.910;2023-05-08T12:55:33;101459.25;;;19.40;28.92